Time;durP1;ratioP1;P1;durP2;ratioP2;P2;SDS_P1;SDS_P2;PMS_P1;PMS_P2;Temp;Humidity;BMP_temperature;BMP_pressure;BME280_temperature;BME280_humidity;BME280_pressure;Samples;Min_cycle;Max_cycle;Signal;HPM_P1;HPM_P2
2021/12/02 00:03:08;;;;;;;11.90;6.80;;;;;;;3.11;100.00;96373.11;100005;1336;72582;-69
2021/12/02 00:05:57;;;;;;;13.60;7.30;;;;;;;3.12;100.00;96369.19;100073;1339;68765;-68
2021/12/02 00:08:50;;;;;;;12.00;7.60;;;;;;;3.13;100.00;96358.76;100002;1337;73096;-68
2021/12/02 00:11:39;;;;;;;12.00;7.10;;;;;;;3.14;100.00;96364.36;99972;1336;59335;-68
2021/12/02 00:14:30;;;;;;;12.80;7.20;;;;;;;3.18;100.00;96358.93;99928;1343;60440;-68
2021/12/02 00:17:26;;;;;;;13.80;7.10;;;;;;;3.23;100.00;96354.63;99673;1343;70663;-68
2021/12/02 00:23:34;;;;;;;13.80;7.90;;;;;;;3.32;100.00;96339.48;99781;1339;71887;-68
2021/12/02 00:26:24;;;;;;;13.00;6.80;;;;;;;3.37;100.00;96333.57;99939;1340;59827;-68
2021/12/02 00:29:18;;;;;;;16.90;8.10;;;;;;;3.42;100.00;96330.11;99837;1336;59451;-68
2021/12/02 00:32:10;;;;;;;12.90;7.10;;;;;;;3.45;100.00;96327.33;99710;1340;72645;-68
2021/12/02 00:35:00;;;;;;;13.20;7.00;;;;;;;3.47;100.00;96326.40;99846;1339;68500;-68
2021/12/02 00:37:50;;;;;;;11.70;7.00;;;;;;;3.49;100.00;96325.10;99779;1339;73082;-68
2021/12/02 00:40:39;;;;;;;13.60;7.70;;;;;;;3.50;100.00;96320.73;99688;1343;59432;-68
2021/12/02 00:43:30;;;;;;;11.20;6.70;;;;;;;3.52;100.00;96320.54;99662;1339;60788;-68
2021/12/02 00:46:22;;;;;;;12.00;6.30;;;;;;;3.56;100.00;96314.13;99981;1340;71257;-68
2021/12/02 00:49:17;;;;;;;11.20;6.90;;;;;;;3.59;100.00;96318.55;100090;1339;68520;-68
2021/12/02 00:52:11;;;;;;;10.80;5.80;;;;;;;3.63;100.00;96322.89;98659;1343;1003765;-68
2021/12/02 00:55:02;;;;;;;9.50;4.80;;;;;;;3.69;100.00;96320.88;100200;1343;59378;-69
2021/12/02 00:57:53;;;;;;;10.40;5.70;;;;;;;3.69;100.00;96307.36;100166;1337;60869;-68
2021/12/02 01:00:42;;;;;;;9.40;4.90;;;;;;;3.67;100.00;96309.83;99767;1336;72754;-68
2021/12/02 01:03:35;;;;;;;10.50;4.90;;;;;;;3.64;100.00;96298.04;99517;1339;69011;-68
2021/12/02 01:06:24;;;;;;;8.30;4.30;;;;;;;3.62;100.00;96294.30;99537;1342;71921;-70
2021/12/02 01:09:13;;;;;;;10.30;4.40;;;;;;;3.58;100.00;96286.98;99720;1339;60018;-69
2021/12/02 01:12:02;;;;;;;9.60;4.30;;;;;;;3.56;100.00;96279.00;99723;1343;59444;-68
2021/12/02 01:14:50;;;;;;;8.10;3.80;;;;;;;3.52;100.00;96277.13;99718;1336;72993;-69
2021/12/02 01:17:40;;;;;;;7.30;3.60;;;;;;;3.50;100.00;96278.71;99900;1336;67112;-69
2021/12/02 01:20:32;;;;;;;7.20;3.30;;;;;;;3.49;99.95;96282.89;99639;1340;73152;-70
2021/12/02 01:23:23;;;;;;;9.80;3.20;;;;;;;3.50;99.23;96285.54;98371;1342;1003372;-69
2021/12/02 01:26:15;;;;;;;8.40;3.20;;;;;;;3.53;98.52;96283.14;99688;1339;59843;-68
2021/12/02 01:29:05;;;;;;;7.00;2.60;;;;;;;3.54;97.77;96284.59;99924;1340;72752;-69
2021/12/02 01:32:00;;;;;;;6.60;2.40;;;;;;;3.56;96.04;96280.80;99944;1342;67719;-67
2021/12/02 01:34:50;;;;;;;8.30;2.00;;;;;;;3.62;94.68;96286.04;99925;1339;73289;-68
2021/12/02 01:37:40;;;;;;;5.30;1.90;;;;;;;3.63;94.39;96278.67;99626;1336;59419;-68
2021/12/02 01:40:29;;;;;;;8.40;1.80;;;;;;;3.59;94.54;96278.75;99640;1339;59727;-68
2021/12/02 01:43:32;;;;;;;6.60;1.70;;;;;;;3.57;92.74;96281.25;99748;1339;72812;-67
2021/12/02 01:46:25;;;;;;;5.70;1.70;;;;;;;3.57;93.20;96271.98;99860;1340;67246;-67
2021/12/02 01:49:14;;;;;;;6.10;1.80;;;;;;;3.54;91.66;96264.44;99703;1339;71627;-67
2021/12/02 01:52:10;;;;;;;5.60;1.60;;;;;;;3.51;91.72;96262.11;99822;1340;59471;-67
2021/12/02 01:55:10;;;;;;;6.20;1.90;;;;;;;3.45;90.46;96263.50;99701;1340;60710;-67
2021/12/02 01:58:03;;;;;;;5.50;1.40;;;;;;;3.39;91.95;96253.45;99791;1336;72890;-68
2021/12/02 02:00:58;;;;;;;6.20;1.40;;;;;;;3.32;89.94;96251.77;99852;1337;68568;-67
2021/12/02 02:03:51;;;;;;;5.90;1.50;;;;;;;3.29;87.66;96244.23;99923;1336;73408;-67
2021/12/02 02:06:56;;;;;;;5.10;1.50;;;;;;;3.29;88.66;96240.41;99855;1339;59392;-67
2021/12/02 02:09:46;;;;;;;5.60;1.50;;;;;;;3.23;88.08;96235.04;99704;1337;60585;-67
2021/12/02 02:12:35;;;;;;;4.80;1.30;;;;;;;3.20;88.96;96239.08;99713;1342;72700;-68
2021/12/02 02:15:27;;;;;;;5.80;1.30;;;;;;;3.13;88.96;96236.41;99638;1342;66738;-67
2021/12/02 02:21:10;;;;;;;6.10;1.30;;;;;;;3.06;88.28;96234.00;99693;1342;59436;-67
2021/12/02 02:24:00;;;;;;;6.60;1.40;;;;;;;3.06;88.84;96228.79;99919;1337;59371;-66
2021/12/02 02:26:50;;;;;;;4.80;1.30;;;;;;;3.09;87.54;96238.68;99600;1342;71458;-67
2021/12/02 02:29:39;;;;;;;4.90;1.30;;;;;;;3.13;88.21;96238.62;99638;1337;68731;-67
2021/12/02 02:32:28;;;;;;;5.40;1.40;;;;;;;3.14;87.27;96241.94;99718;1340;73365;-66
2021/12/02 02:35:17;;;;;;;6.10;1.30;;;;;;;3.18;87.26;96234.84;99636;1337;59363;-67
2021/12/02 02:38:07;;;;;;;5.20;1.70;;;;;;;3.19;86.78;96228.63;99716;1339;61204;-67
2021/12/02 02:40:59;;;;;;;8.30;1.50;;;;;;;3.18;86.60;96229.80;99862;1340;72518;-67
2021/12/02 02:43:51;;;;;;;5.10;1.50;;;;;;;3.16;86.56;96224.88;99696;1342;68074;-68
2021/12/02 02:46:42;;;;;;;5.10;1.20;;;;;;;3.15;85.97;96225.77;99588;1339;73715;-67
2021/12/02 02:49:31;;;;;;;4.70;1.20;;;;;;;3.14;85.75;96226.43;99656;1343;59485;-67
2021/12/02 02:52:21;;;;;;;5.40;1.40;;;;;;;3.13;86.85;96225.42;99726;1339;60997;-67
2021/12/02 02:55:16;;;;;;;5.40;1.10;;;;;;;3.12;87.03;96225.55;99869;1344;72840;-67
2021/12/02 02:58:19;;;;;;;5.90;1.40;;;;;;;3.10;85.90;96225.59;99679;1344;68650;-67
2021/12/02 03:01:25;;;;;;;5.20;1.20;;;;;;;3.09;85.78;96218.72;99897;1337;72601;-67
2021/12/02 03:10:20;;;;;;;4.00;1.10;;;;;;;3.05;84.18;96209.08;99718;1337;71508;-67
2021/12/02 03:13:15;;;;;;;4.00;1.10;;;;;;;3.05;85.40;96215.97;99961;1340;66938;-67
2021/12/02 03:19:26;;;;;;;4.50;1.20;;;;;;;2.99;87.53;96240.80;99730;1340;59414;-67
2021/12/02 03:22:16;;;;;;;4.60;1.20;;;;;;;2.86;89.65;96250.87;99852;1336;59618;-67
2021/12/02 03:25:07;;;;;;;4.20;1.20;;;;;;;2.69;91.51;96246.17;99906;1339;72673;-66
2021/12/02 03:27:56;;;;;;;6.20;1.40;;;;;;;2.54;92.29;96239.77;99850;1340;68595;-67
2021/12/02 03:30:46;;;;;;;5.00;1.20;;;;;;;2.38;91.59;96235.29;99826;1340;73624;-67
2021/12/02 03:33:35;;;;;;;4.60;1.20;;;;;;;2.32;90.43;96224.61;99955;1340;59435;-67
2021/12/02 03:36:25;;;;;;;5.50;1.40;;;;;;;2.26;90.80;96225.59;99677;1336;59475;-67
2021/12/02 03:39:14;;;;;;;3.90;1.10;;;;;;;2.22;89.49;96220.36;99744;1340;70624;-69
2021/12/02 03:42:05;;;;;;;3.90;1.10;;;;;;;2.18;89.71;96206.42;99996;1344;68153;-69
2021/12/02 03:44:54;;;;;;;4.10;1.10;;;;;;;2.17;89.82;96200.25;99904;1339;73517;-69
2021/12/02 03:47:45;;;;;;;4.20;1.10;;;;;;;2.16;90.18;96200.19;100035;1343;59647;-69
2021/12/02 03:50:33;;;;;;;4.40;1.20;;;;;;;2.15;90.41;96196.55;99757;1339;59475;-69
2021/12/02 03:53:22;;;;;;;4.40;1.20;;;;;;;2.14;90.27;96201.23;99755;1339;71769;-68
2021/12/02 03:56:12;;;;;;;4.40;0.90;;;;;;;2.12;89.41;96208.24;99789;1343;68018;-68
2021/12/02 03:59:01;;;;;;;5.30;1.40;;;;;;;2.14;88.95;96223.63;99997;1340;73392;-68
2021/12/02 04:01:50;;;;;;;4.50;1.00;;;;;;;2.16;89.16;96232.67;99918;1340;59431;-69
2021/12/02 04:04:39;;;;;;;4.20;1.10;;;;;;;2.02;89.57;96230.77;99758;1339;59411;-69
2021/12/02 04:07:27;;;;;;;3.00;0.80;;;;;;;1.84;90.49;96227.43;100018;1341;72114;-69
2021/12/02 04:10:17;;;;;;;3.20;0.90;;;;;;;1.65;91.54;96219.92;99894;1339;67534;-69
2021/12/02 04:13:18;;;;;;;3.60;0.90;;;;;;;1.57;92.32;96236.33;99758;1342;72173;-69
2021/12/02 04:16:14;;;;;;;3.40;0.90;;;;;;;1.47;92.73;96234.35;99745;1337;59474;-68
2021/12/02 04:19:06;;;;;;;4.30;1.20;;;;;;;1.39;93.21;96238.49;100078;1340;59357;-68
2021/12/02 04:22:00;;;;;;;2.90;0.80;;;;;;;1.29;92.58;96241.74;100311;1336;73248;-68
2021/12/02 04:24:49;;;;;;;2.90;0.80;;;;;;;1.22;90.85;96246.65;99768;1336;68364;-68
2021/12/02 04:27:38;;;;;;;4.90;1.10;;;;;;;1.15;89.59;96243.85;99703;1337;73624;-68
2021/12/02 04:30:27;;;;;;;4.00;1.10;;;;;;;1.07;89.12;96240.93;100086;1340;59867;-68
2021/12/02 04:33:17;;;;;;;4.20;1.20;;;;;;;1.07;88.74;96244.66;99818;1337;61049;-68
2021/12/02 04:36:07;;;;;;;5.40;1.20;;;;;;;1.05;87.74;96245.16;99767;1336;72672;-69
2021/12/02 04:38:55;;;;;;;4.70;1.50;;;;;;;1.04;87.25;96251.54;99816;1342;66024;-68
2021/12/02 04:41:44;;;;;;;3.80;1.10;;;;;;;1.05;86.86;96248.54;99769;1336;73138;-68
2021/12/02 04:44:33;;;;;;;3.70;1.10;;;;;;;1.03;86.44;96247.25;99796;1342;59432;-68
2021/12/02 04:47:22;;;;;;;4.10;1.20;;;;;;;1.01;86.59;96250.11;99658;1336;60965;-68
2021/12/02 04:50:11;;;;;;;3.40;0.80;;;;;;;1.00;87.69;96257.14;99827;1339;72951;-69
2021/12/02 04:53:01;;;;;;;3.40;0.90;;;;;;;0.96;89.01;96255.77;99737;1339;68360;-70
2021/12/02 04:55:49;;;;;;;3.80;1.00;;;;;;;0.87;89.86;96253.80;99848;1340;75130;-68
2021/12/02 04:58:38;;;;;;;3.60;0.90;;;;;;;0.76;89.83;96238.56;99057;1339;1016734;-68
2021/12/02 05:01:27;;;;;;;4.20;1.00;;;;;;;0.71;89.58;96260.41;99985;1336;60588;-68
2021/12/02 05:04:16;;;;;;;3.60;1.00;;;;;;;0.64;89.09;96257.19;100158;1336;72810;-68
2021/12/02 05:07:04;;;;;;;4.10;1.10;;;;;;;0.61;89.19;96254.50;100164;1336;66598;-67
2021/12/02 05:09:53;;;;;;;4.10;1.20;;;;;;;0.56;89.18;96253.67;100166;1336;71980;-69
2021/12/02 05:12:42;;;;;;;3.90;1.00;;;;;;;0.52;88.83;96245.01;100362;1340;60575;-68
2021/12/02 05:15:31;;;;;;;3.70;1.00;;;;;;;0.49;89.20;96248.87;99974;1337;59533;-69
2021/12/02 05:18:19;;;;;;;3.70;1.00;;;;;;;0.40;90.67;96251.52;100350;1337;72835;-68
2021/12/02 05:21:08;;;;;;;4.60;1.20;;;;;;;0.34;91.45;96252.59;100052;1338;66447;-68
2021/12/02 05:23:57;;;;;;;4.40;1.30;;;;;;;0.28;92.33;96254.06;100271;1337;73293;-68
2021/12/02 05:26:46;;;;;;;4.40;1.30;;;;;;;0.21;92.77;96255.14;100048;1338;59466;-70
2021/12/02 05:29:41;;;;;;;4.50;1.40;;;;;;;0.14;93.59;96252.36;100056;1337;195270;-68
2021/12/02 05:32:30;;;;;;;4.10;1.10;;;;;;;0.07;94.08;96245.42;100184;1340;72925;-68
2021/12/02 05:35:19;;;;;;;4.60;1.20;;;;;;;0.05;94.17;96247.70;100419;1340;69201;-69
2021/12/02 05:38:08;;;;;;;4.60;1.30;;;;;;;0.04;94.20;96249.20;98744;1342;1003957;-68
2021/12/02 05:40:57;;;;;;;4.20;1.20;;;;;;;0.01;93.90;96247.89;100144;1336;59439;-68
2021/12/02 05:43:45;;;;;;;5.30;1.20;;;;;;;0.00;93.93;96237.17;99833;1336;59349;-67
2021/12/02 05:46:33;;;;;;;4.60;1.20;;;;;;;-0.02;93.72;96237.77;100088;1340;71441;-68
2021/12/02 05:49:22;;;;;;;4.40;1.30;;;;;;;-0.04;93.60;96238.05;101024;1335;68272;-69
2021/12/02 05:52:14;;;;;;;5.40;1.70;;;;;;;-0.05;93.40;96239.41;99512;1340;1002901;-68
2021/12/02 05:55:04;;;;;;;4.50;1.40;;;;;;;-0.05;93.42;96237.66;100393;1337;61015;-68
2021/12/02 05:57:53;;;;;;;5.60;1.40;;;;;;;-0.04;92.98;96228.52;100239;1339;59520;-69
2021/12/02 06:00:42;;;;;;;5.30;1.50;;;;;;;-0.03;92.38;96225.48;100412;1337;72150;-68
2021/12/02 06:03:34;;;;;;;4.50;1.30;;;;;;;-0.04;91.53;96229.20;100211;1340;67037;-69
2021/12/02 06:06:25;;;;;;;4.20;1.30;;;;;;;-0.02;90.05;96236.30;100115;1337;72917;-68
2021/12/02 06:09:15;;;;;;;4.70;1.30;;;;;;;0.03;89.99;96234.71;99987;1337;59454;-67
2021/12/02 06:12:08;;;;;;;4.60;1.20;;;;;;;0.03;89.54;96231.68;100095;1335;60234;-67
2021/12/02 06:14:57;;;;;;;5.10;1.50;;;;;;;0.01;90.18;96243.23;100307;1337;72385;-67
2021/12/02 06:17:47;;;;;;;4.50;1.20;;;;;;;0.01;90.81;96246.56;100261;1335;66071;-68
2021/12/02 06:20:35;;;;;;;4.90;1.30;;;;;;;0.00;91.25;96248.67;100272;1336;72226;-67
2021/12/02 06:23:24;;;;;;;4.20;1.30;;;;;;;-0.03;91.11;96251.25;100278;1336;59478;-68
2021/12/02 06:26:13;;;;;;;5.20;1.40;;;;;;;-0.06;91.84;96249.33;100195;1337;60653;-68
2021/12/02 06:29:02;;;;;;;3.90;1.10;;;;;;;-0.13;93.05;96251.83;100108;1336;71910;-69
2021/12/02 06:31:51;;;;;;;4.90;1.40;;;;;;;-0.18;93.82;96247.26;100338;1334;66850;-68
2021/12/02 06:34:40;;;;;;;4.70;1.40;;;;;;;-0.27;94.61;96246.50;99968;1336;71503;-69
2021/12/02 06:37:33;;;;;;;5.30;1.30;;;;;;;-0.31;94.92;96245.57;100210;1333;59326;-69
2021/12/02 06:40:22;;;;;;;5.10;1.50;;;;;;;-0.34;95.54;96254.88;100298;1336;59393;-69
2021/12/02 06:43:15;;;;;;;5.20;1.50;;;;;;;-0.36;95.95;96256.42;100268;1334;70363;-69
2021/12/02 06:46:05;;;;;;;5.40;1.60;;;;;;;-0.40;96.39;96250.89;99600;1336;1002993;-69
2021/12/02 06:48:55;;;;;;;4.90;1.30;;;;;;;-0.43;96.54;96252.39;99541;1334;1003013;-69
2021/12/02 06:51:47;;;;;;;4.80;1.20;;;;;;;-0.45;96.56;96232.70;100298;1340;59578;-69
2021/12/02 06:54:39;;;;;;;4.80;1.50;;;;;;;-0.46;95.69;96248.19;100797;1340;60611;-68
2021/12/02 06:57:30;;;;;;;6.20;1.90;;;;;;;-0.44;95.46;96239.40;100612;1333;70919;-70
2021/12/02 07:00:22;;;;;;;5.70;1.50;;;;;;;-0.41;94.83;96243.28;100270;1336;68275;-68
2021/12/02 07:03:10;;;;;;;6.50;1.70;;;;;;;-0.39;94.83;96247.50;100239;1339;73307;-69
2021/12/02 07:06:05;;;;;;;6.80;1.80;;;;;;;-0.37;95.04;96243.11;100134;1337;59271;-68
2021/12/02 07:08:53;;;;;;;6.80;1.80;;;;;;;-0.38;94.80;96243.55;100375;1336;60955;-68
2021/12/02 07:11:43;;;;;;;7.40;2.70;;;;;;;-0.35;94.84;96242.25;100253;1337;73020;-72
2021/12/02 07:14:32;;;;;;;6.60;1.80;;;;;;;-0.31;94.32;96238.19;100106;1339;68164;-71
2021/12/02 07:17:26;;;;;;;5.70;1.90;;;;;;;-0.28;93.59;96236.71;100632;1337;73034;-67
2021/12/02 07:20:17;;;;;;;6.10;1.60;;;;;;;-0.27;92.98;96233.63;100095;1337;59408;-70
2021/12/02 07:23:06;;;;;;;5.20;1.50;;;;;;;-0.26;92.96;96238.80;100476;1339;60749;-68
2021/12/02 07:25:58;;;;;;;4.90;1.30;;;;;;;-0.24;92.55;96246.98;100330;1337;73353;-68
2021/12/02 07:28:48;;;;;;;4.40;1.10;;;;;;;-0.22;92.72;96253.77;100271;1340;68825;-68
2021/12/02 07:31:40;;;;;;;5.40;1.40;;;;;;;-0.23;92.88;96257.33;100297;1336;73082;-70
2021/12/02 07:34:33;;;;;;;4.90;1.40;;;;;;;-0.24;93.53;96253.23;100251;1336;59434;-68
2021/12/02 07:37:24;;;;;;;5.50;1.10;;;;;;;-0.25;93.61;96250.16;100353;1339;59552;-69
2021/12/02 07:40:16;;;;;;;6.50;1.70;;;;;;;-0.27;93.82;96264.68;100561;1337;72563;-69
2021/12/02 07:43:05;;;;;;;6.10;1.50;;;;;;;-0.28;94.26;96258.50;100204;1336;66920;-68
2021/12/02 07:45:57;;;;;;;5.70;1.70;;;;;;;-0.29;94.45;96264.70;100113;1337;72879;-69
2021/12/02 07:48:46;;;;;;;5.10;1.50;;;;;;;-0.30;94.66;96262.77;100296;1339;59402;-68
2021/12/02 07:51:35;;;;;;;5.10;1.70;;;;;;;-0.32;95.13;96269.66;100067;1336;59353;-68
2021/12/02 07:54:24;;;;;;;6.50;2.00;;;;;;;-0.32;95.25;96260.73;100402;1340;72703;-69
2021/12/02 07:57:14;;;;;;;6.80;1.80;;;;;;;-0.32;94.71;96251.39;99908;1339;68142;-68
2021/12/02 08:00:03;;;;;;;5.40;1.90;;;;;;;-0.29;94.91;96264.65;99811;1339;72690;-69
2021/12/02 08:02:55;;;;;;;5.10;1.50;;;;;;;-0.25;94.80;96272.34;100202;1340;59445;-69
2021/12/02 08:05:44;;;;;;;5.20;1.70;;;;;;;-0.22;93.85;96265.27;100060;1340;60901;-68
2021/12/02 08:08:33;;;;;;;4.80;1.50;;;;;;;-0.21;94.06;96266.14;100232;1337;73566;-69
2021/12/02 08:11:21;;;;;;;4.80;1.30;;;;;;;-0.19;93.95;96276.45;99866;1336;68605;-68
2021/12/02 08:14:15;;;;;;;6.70;1.60;;;;;;;-0.20;93.62;96272.52;99892;1339;73923;-68
2021/12/02 08:17:05;;;;;;;4.60;1.30;;;;;;;-0.18;93.81;96284.89;98394;1336;1003805;-70
2021/12/02 08:19:53;;;;;;;4.60;1.40;;;;;;;-0.14;93.83;96275.96;100078;1340;61200;-71
2021/12/02 08:22:42;;;;;;;5.50;1.70;;;;;;;-0.08;93.72;96286.78;100216;1335;72223;-66
2021/12/02 08:25:32;;;;;;;6.00;1.60;;;;;;;-0.05;92.59;96298.62;99880;1336;68388;-70
2021/12/02 08:28:20;;;;;;;5.10;1.30;;;;;;;0.02;92.62;96285.43;100239;1339;73719;-69
2021/12/02 08:31:08;;;;;;;4.90;1.40;;;;;;;0.08;91.90;96297.98;99839;1341;59291;-68
2021/12/02 08:33:57;;;;;;;5.30;1.40;;;;;;;0.11;91.74;96306.26;100063;1343;59892;-68
2021/12/02 08:36:51;;;;;;;5.20;1.70;;;;;;;0.16;91.48;96310.79;99972;1343;71456;-69
2021/12/02 08:39:41;;;;;;;4.70;1.40;;;;;;;0.28;91.40;96312.82;100131;1343;67051;-69
2021/12/02 08:42:33;;;;;;;5.90;1.60;;;;;;;0.34;90.19;96308.95;100295;1340;71299;-69
2021/12/02 08:45:21;;;;;;;5.30;1.50;;;;;;;0.35;89.75;96319.30;100232;1337;59243;-68
2021/12/02 08:48:13;;;;;;;6.50;1.60;;;;;;;0.35;89.44;96316.39;100027;1340;60927;-69
2021/12/02 08:51:02;;;;;;;5.20;1.50;;;;;;;0.36;89.17;96326.21;100192;1337;72984;-68
2021/12/02 08:53:51;;;;;;;5.40;1.40;;;;;;;0.36;89.20;96318.91;100378;1337;67219;-68
2021/12/02 08:56:40;;;;;;;5.10;1.40;;;;;;;0.32;89.59;96332.81;100204;1340;72885;-68
2021/12/02 08:59:30;;;;;;;4.50;1.30;;;;;;;0.29;89.24;96329.30;99892;1343;59479;-67
2021/12/02 09:02:18;;;;;;;4.90;1.40;;;;;;;0.27;89.62;96341.13;100529;1336;60959;-69
2021/12/02 09:05:08;;;;;;;6.40;1.90;;;;;;;0.26;89.78;96344.90;99377;1337;1003193;-71
2021/12/02 09:07:57;;;;;;;5.00;1.60;;;;;;;0.26;89.90;96344.05;99337;1340;1003777;-68
2021/12/02 09:10:45;;;;;;;5.90;1.60;;;;;;;0.26;89.91;96348.40;99768;1342;73358;-68
2021/12/02 09:13:34;;;;;;;5.20;1.30;;;;;;;0.29;89.95;96356.11;99976;1340;59626;-68
2021/12/02 09:16:24;;;;;;;5.60;1.40;;;;;;;0.30;89.58;96354.08;99270;1340;1003027;-68
2021/12/02 09:19:12;;;;;;;5.00;1.60;;;;;;;0.32;89.19;96372.38;100222;1339;71771;-69
2021/12/02 09:22:02;;;;;;;5.50;1.60;;;;;;;0.39;88.87;96372.50;100160;1336;68359;-68
2021/12/02 09:24:50;;;;;;;5.80;1.70;;;;;;;0.47;88.63;96385.83;100188;1337;71645;-68
2021/12/02 09:27:40;;;;;;;5.60;1.50;;;;;;;0.57;88.08;96390.45;100182;1336;59457;-69
2021/12/02 09:30:29;;;;;;;5.60;1.50;;;;;;;0.66;87.38;96379.88;100380;1337;60453;-68
2021/12/02 09:33:19;;;;;;;4.50;1.40;;;;;;;0.81;87.06;96389.76;100152;1337;71094;-69
2021/12/02 09:36:08;;;;;;;4.70;1.40;;;;;;;0.91;85.81;96405.16;100081;1340;68342;-68
2021/12/02 09:38:57;;;;;;;5.10;1.40;;;;;;;1.01;85.53;96400.25;99943;1337;71734;-68
2021/12/02 09:41:47;;;;;;;5.40;1.60;;;;;;;1.06;85.09;96399.28;100142;1336;59519;-67
2021/12/02 09:44:39;;;;;;;5.10;1.50;;;;;;;1.10;85.20;96398.83;99286;1337;1003175;-67
2021/12/02 09:47:35;;;;;;;6.10;1.70;;;;;;;1.16;84.97;96401.55;100053;1337;74068;-66
2021/12/02 09:50:32;;;;;;;5.70;1.30;;;;;;;1.19;84.44;96405.48;99989;1340;67962;-67
2021/12/02 09:53:31;;;;;;;5.50;1.70;;;;;;;1.22;84.60;96408.30;100105;1336;71369;-67
2021/12/02 09:56:26;;;;;;;5.60;1.50;;;;;;;1.20;83.66;96401.73;100112;1334;59553;-66
2021/12/02 09:59:33;;;;;;;5.10;1.40;;;;;;;1.26;83.82;96402.39;100348;1336;59494;-67
2021/12/02 10:02:23;;;;;;;5.40;1.60;;;;;;;1.32;84.18;96407.84;100084;1342;72678;-67
2021/12/02 10:05:14;;;;;;;5.10;1.20;;;;;;;1.46;83.80;96411.91;100360;1343;68658;-66
2021/12/02 10:08:07;;;;;;;5.60;1.60;;;;;;;1.51;83.33;96409.70;100417;1337;73816;-67
2021/12/02 10:11:00;;;;;;;5.00;1.30;;;;;;;1.63;82.55;96410.59;100460;1337;59384;-66
2021/12/02 10:14:00;;;;;;;6.20;1.50;;;;;;;1.69;82.63;96413.70;100150;1336;59431;-67
2021/12/02 10:16:53;;;;;;;5.00;1.70;;;;;;;1.76;82.41;96411.55;100486;1342;72698;-66
2021/12/02 10:26:13;;;;;;;6.20;1.30;;;;;;;1.94;81.54;96416.77;100138;1337;59259;-66
2021/12/02 10:29:20;;;;;;;6.30;1.70;;;;;;;1.84;82.42;96423.14;100075;1340;59515;-66
2021/12/02 10:32:25;;;;;;;5.10;1.40;;;;;;;1.83;81.92;96417.16;100137;1337;71433;-67
2021/12/02 10:35:15;;;;;;;5.90;1.60;;;;;;;1.83;82.02;96426.93;100146;1340;67768;-66
2021/12/02 10:38:03;;;;;;;5.10;1.40;;;;;;;1.72;82.36;96432.41;100087;1336;72199;-66
2021/12/02 10:41:03;;;;;;;8.00;1.70;;;;;;;1.69;82.51;96440.11;100241;1335;59482;-66
2021/12/02 10:44:08;;;;;;;5.10;1.40;;;;;;;1.72;82.44;96441.05;100238;1337;60589;-67
2021/12/02 10:47:16;;;;;;;5.70;1.60;;;;;;;1.80;82.28;96429.77;100096;1340;72766;-66
2021/12/02 10:50:10;;;;;;;5.20;1.50;;;;;;;1.71;82.30;96447.20;100090;1336;66023;-65
2021/12/02 10:53:05;;;;;;;6.80;1.70;;;;;;;1.73;82.31;96443.67;99972;1337;70985;-66
2021/12/02 10:55:59;;;;;;;5.70;2.00;;;;;;;1.76;82.70;96451.23;100371;1335;59262;-66
2021/12/02 10:58:48;;;;;;;5.70;1.70;;;;;;;1.84;82.39;96456.77;100111;1335;61444;-67
2021/12/02 11:01:40;;;;;;;5.80;1.50;;;;;;;1.85;82.44;96442.45;100075;1342;72950;-66
2021/12/02 11:04:45;;;;;;;5.20;1.50;;;;;;;1.73;83.18;96451.38;100166;1339;66731;-65
2021/12/02 11:07:41;;;;;;;4.90;1.50;;;;;;;1.66;83.69;96460.59;100033;1341;73230;-66
2021/12/02 11:10:44;;;;;;;5.20;1.60;;;;;;;1.50;84.44;96457.35;100068;1340;59479;-66
2021/12/02 11:13:32;;;;;;;5.00;1.40;;;;;;;1.48;85.34;96479.38;100096;1342;60505;-66
2021/12/02 11:16:35;;;;;;;5.10;1.50;;;;;;;1.41;85.86;96481.44;100084;1336;71864;-66
2021/12/02 11:19:24;;;;;;;4.90;1.30;;;;;;;1.36;86.54;96487.79;100242;1342;67042;-66
2021/12/02 11:22:20;;;;;;;4.70;1.40;;;;;;;1.40;86.74;96495.02;100114;1340;72925;-66
2021/12/02 11:25:12;;;;;;;6.50;1.60;;;;;;;1.31;87.47;96502.96;100459;1342;59298;-66
2021/12/02 11:28:06;;;;;;;5.00;1.40;;;;;;;1.28;87.92;96495.73;100025;1328;59826;-66
2021/12/02 11:30:57;;;;;;;4.90;1.40;;;;;;;1.27;88.10;96512.27;99994;1340;70492;-69
2021/12/02 11:33:50;;;;;;;5.40;1.60;;;;;;;1.18;88.47;96517.63;100036;1337;66297;-67
2021/12/02 11:36:38;;;;;;;4.50;1.30;;;;;;;1.14;89.52;96507.54;100074;1337;73396;-65
2021/12/02 11:39:27;;;;;;;6.50;1.50;;;;;;;1.16;89.54;96511.71;100366;1337;59332;-66
2021/12/02 11:42:16;;;;;;;5.70;1.90;;;;;;;1.21;89.60;96530.11;99816;1343;59772;-70
2021/12/02 11:45:08;;;;;;;6.30;1.80;;;;;;;1.23;89.74;96529.47;101025;1336;74984;-67
2021/12/02 11:47:58;;;;;;;5.30;1.50;;;;;;;1.27;89.54;96541.42;100323;1336;67278;-69
2021/12/02 11:50:50;;;;;;;4.60;1.30;;;;;;;1.21;89.77;96543.10;100083;1341;72034;-69
2021/12/02 11:54:08;;;;;;;5.40;1.60;;;;;;;1.18;90.10;96549.75;99967;1343;59860;-67
2021/12/02 11:57:01;;;;;;;4.80;1.20;;;;;;;1.22;90.11;96563.40;100035;1338;59459;-68
2021/12/02 11:59:50;;;;;;;4.70;1.60;;;;;;;1.18;90.51;96565.52;100366;1342;73229;-70
2021/12/02 12:03:14;;;;;;;5.30;1.80;;;;;;;1.17;90.91;96564.38;100219;1339;67217;-67
2021/12/02 12:06:10;;;;;;;6.20;1.80;;;;;;;1.17;91.03;96571.55;100115;1340;70410;-67
2021/12/02 12:09:00;;;;;;;5.90;1.60;;;;;;;1.15;91.24;96575.21;100164;1339;59415;-66
2021/12/02 12:11:57;;;;;;;4.90;1.40;;;;;;;1.09;91.73;96585.26;100303;1336;60254;-70
2021/12/02 12:14:46;;;;;;;5.70;1.40;;;;;;;1.05;92.41;96579.65;100151;1339;70558;-67
2021/12/02 12:17:44;;;;;;;4.80;1.50;;;;;;;1.05;92.57;96587.23;100321;1340;65926;-69
2021/12/02 12:20:58;;;;;;;5.20;1.40;;;;;;;1.06;92.62;96592.36;100324;1340;71719;-68
2021/12/02 12:24:00;;;;;;;5.10;1.40;;;;;;;1.05;92.65;96596.77;100343;1336;59387;-69
2021/12/02 12:26:50;;;;;;;6.50;1.50;;;;;;;1.07;92.91;96606.75;100263;1340;59478;-69
2021/12/02 12:29:38;;;;;;;5.10;1.60;;;;;;;1.06;93.20;96610.48;100067;1337;72312;-68
2021/12/02 12:36:13;;;;;;;4.80;1.30;;;;;;;1.03;93.73;96631.90;100370;1342;70520;-67
2021/12/02 12:39:21;;;;;;;5.70;1.50;;;;;;;1.06;93.64;96634.77;100063;1342;59447;-68
2021/12/02 12:42:13;;;;;;;5.80;1.40;;;;;;;1.07;93.54;96628.94;100363;1340;59416;-68
2021/12/02 12:45:06;;;;;;;6.10;1.70;;;;;;;1.05;93.49;96644.79;100149;1339;71402;-68
2021/12/02 12:47:59;;;;;;;5.20;1.40;;;;;;;1.01;93.78;96654.38;100372;1340;67051;-68
2021/12/02 12:50:48;;;;;;;5.70;1.60;;;;;;;1.00;93.98;96655.02;100119;1340;71444;-68
2021/12/02 12:53:40;;;;;;;6.10;1.80;;;;;;;0.99;94.29;96662.10;100063;1340;60866;-67
2021/12/02 12:56:42;;;;;;;5.20;1.50;;;;;;;0.99;94.33;96671.70;100013;1337;59592;-69
2021/12/02 12:59:48;;;;;;;6.00;1.70;;;;;;;1.01;94.53;96676.56;100147;1340;71129;-69
2021/12/02 13:02:53;;;;;;;5.30;1.80;;;;;;;1.02;94.57;96684.67;100351;1341;68309;-71
2021/12/02 13:05:50;;;;;;;5.60;1.70;;;;;;;1.03;94.61;96696.00;100271;1340;72925;-70
2021/12/02 13:09:01;;;;;;;5.50;1.60;;;;;;;1.03;95.16;96717.08;99975;1342;60831;-70
2021/12/02 13:11:58;;;;;;;5.70;1.90;;;;;;;1.02;95.39;96718.21;100320;1342;59417;-71
2021/12/02 13:14:51;;;;;;;6.20;1.80;;;;;;;0.99;95.53;96723.67;100417;1339;72742;-70
2021/12/02 13:17:51;;;;;;;6.30;1.50;;;;;;;0.95;96.04;96728.31;100526;1339;68452;-70
2021/12/02 13:20:42;;;;;;;6.00;1.60;;;;;;;0.96;96.29;96735.31;100404;1336;72801;-71
2021/12/02 13:23:32;;;;;;;5.60;1.90;;;;;;;0.95;96.32;96739.08;100415;1336;59566;-70
2021/12/02 13:26:24;;;;;;;5.60;1.80;;;;;;;0.93;96.68;96750.98;100280;1340;59785;-69
2021/12/02 13:29:27;;;;;;;5.90;1.90;;;;;;;0.93;96.58;96754.45;100265;1341;71633;-70
2021/12/02 13:32:16;;;;;;;6.20;1.80;;;;;;;0.90;96.82;96754.73;99926;1337;68389;-68
2021/12/02 13:35:06;;;;;;;5.50;1.80;;;;;;;0.90;97.05;96768.70;100325;1336;72757;-68
2021/12/02 13:38:03;;;;;;;5.50;1.60;;;;;;;0.87;97.18;96776.17;100006;1337;60114;-68
2021/12/02 13:40:52;;;;;;;5.20;1.70;;;;;;;0.82;97.39;96778.16;98907;1335;1003395;-68
2021/12/02 13:44:17;;;;;;;5.40;1.70;;;;;;;0.82;97.65;96784.12;100013;1340;71350;-67
2021/12/02 13:47:32;;;;;;;5.60;1.70;;;;;;;0.82;97.81;96791.77;100173;1342;67403;-68
2021/12/02 13:50:23;;;;;;;5.40;1.80;;;;;;;0.80;98.20;96795.77;99829;1348;73215;-67
2021/12/02 13:53:12;;;;;;;6.20;1.90;;;;;;;0.78;98.26;96804.35;99847;1346;59438;-69
2021/12/02 13:56:01;;;;;;;5.10;1.60;;;;;;;0.76;98.39;96806.08;100234;1342;60624;-67
2021/12/02 13:58:57;;;;;;;6.30;2.00;;;;;;;0.74;98.57;96818.83;99934;1348;72097;-72